Armington, Montana
Current Conditions -  °F | °C
As of 2:56 PM on Wednesday 22 Oct 2014 (Local Time) from KGFA Reporting Station
Clear Clear  
Wind Chill: 59°   Ceiling: Unl
Heat Index: 59°   Visibility: 10mi
Dew Point: 31°   Wind: 32mph
Humidity: 34%   Direction: 230°SW
Pressure: 29.9"   Gusts: 39mph
Location:  47.3298°N, 110.893°W
Report Text: KGFA 222056Z AUTO 23028G34KT 10SM CLR 15/M01 A2990 RMK AO2 PK WND 23033/28 SLP138 T01511008 57015
Loading
Personal Weather Stations






























Interactive Weather Map
Tropical Storm Tracking
New forecast layout! Learn more

10-Day Weather Forecast

Advertisements
Track Severe Weather on mobile